createdAt,value
2022-09-11T00:05:02.826Z,87.80
2022-09-11T00:13:11.867Z,87.80
2022-09-11T00:21:17.285Z,89.00
2022-09-11T00:29:25.195Z,89.20
2022-09-11T00:37:30.866Z,89.70
2022-09-11T00:45:39.276Z,89.70
2022-09-11T00:53:44.690Z,89.60
2022-09-11T01:01:52.683Z,89.70
2022-09-11T01:09:59.007Z,89.60
2022-09-11T01:18:17.155Z,89.50
2022-09-11T01:26:41.660Z,89.70
2022-09-11T01:34:56.402Z,89.70
2022-09-11T01:43:08.040Z,89.80
2022-09-11T01:51:20.225Z,90.50
2022-09-11T01:59:29.085Z,91.00
2022-09-11T02:07:43.907Z,91.10
2022-09-11T02:15:57.148Z,91.10
2022-09-11T02:24:07.026Z,91.20
2022-09-11T02:32:13.501Z,91.10
2022-09-11T02:40:56.435Z,91.30
2022-09-11T02:49:10.720Z,92.00
2022-09-11T02:57:26.853Z,92.00
2022-09-11T03:05:32.972Z,91.70
2022-09-11T03:13:42.918Z,91.50
2022-09-11T03:21:48.448Z,91.50
2022-09-11T03:29:57.083Z,91.70
2022-09-11T03:38:02.472Z,91.70
2022-09-11T03:46:10.520Z,91.50
2022-09-11T03:54:17.781Z,91.50
2022-09-11T04:02:27.318Z,91.50
2022-09-11T04:10:34.937Z,91.30
2022-09-11T04:18:46.034Z,91.30
2022-09-11T04:26:51.937Z,91.20
2022-09-11T04:35:05.786Z,91.30
2022-09-11T04:43:17.893Z,92.00
2022-09-11T04:51:30.252Z,91.90
2022-09-11T04:59:36.177Z,91.50
2022-09-11T05:07:52.798Z,91.20
2022-09-11T05:16:04.279Z,90.60
2022-09-11T05:24:14.897Z,90.60
2022-09-11T05:32:20.298Z,90.40
2022-09-11T05:40:28.316Z,90.30
2022-09-11T05:48:36.860Z,89.60
2022-09-11T05:56:44.958Z,88.40
2022-09-11T06:04:58.034Z,87.00
2022-09-11T06:13:07.295Z,85.00
2022-09-11T06:21:19.253Z,83.40
2022-09-11T06:29:35.018Z,81.20
2022-09-11T06:37:41.153Z,81.90
2022-09-11T06:46:07.089Z,80.20
2022-09-11T06:54:12.626Z,75.70
2022-09-11T07:02:20.764Z,74.30
2022-09-11T07:10:27.456Z,73.40
2022-09-11T07:18:40.920Z,70.40
2022-09-11T07:26:49.181Z,72.00
2022-09-11T07:35:03.404Z,70.20
2022-09-11T07:43:09.124Z,71.10
2022-09-11T07:51:21.619Z,70.30
2022-09-11T07:59:29.180Z,69.40
2022-09-11T08:07:37.501Z,69.60
2022-09-11T08:15:50.515Z,68.60
2022-09-11T08:24:01.429Z,66.00
2022-09-11T08:32:07.156Z,65.10
2022-09-11T08:40:16.269Z,63.50
2022-09-11T08:48:28.364Z,62.90
2022-09-11T08:56:38.035Z,62.60
2022-09-11T09:04:54.795Z,63.30
2022-09-11T09:13:11.111Z,62.50
2022-09-11T09:21:21.115Z,61.80
2022-09-11T09:29:37.912Z,59.00
2022-09-11T09:37:48.967Z,58.30
2022-09-11T09:46:18.485Z,56.70
2022-09-11T09:54:29.962Z,57.80
2022-09-11T10:02:45.559Z,57.10
2022-09-11T10:10:59.420Z,57.50
2022-09-11T10:19:07.354Z,56.00
2022-09-11T10:27:19.764Z,53.30
2022-09-11T10:35:30.144Z,44.10
2022-09-11T10:43:46.912Z,35.50
2022-09-11T10:52:07.929Z,31.20
2022-09-11T11:00:19.323Z,29.90
2022-09-11T11:08:59.717Z,29.60
2022-09-11T11:17:14.996Z,29.00
2022-09-11T11:25:30.225Z,28.10
2022-09-11T11:33:58.708Z,28.00
2022-09-11T11:42:14.022Z,28.10
2022-09-11T11:50:31.804Z,27.80
2022-09-11T11:58:52.661Z,27.00
2022-09-11T12:07:02.727Z,26.20
2022-09-11T12:15:14.147Z,26.90
2022-09-11T12:23:37.711Z,27.70
2022-09-11T12:32:13.434Z,27.30
2022-09-11T12:40:26.131Z,30.80
2022-09-11T12:48:40.180Z,38.20
2022-09-11T12:56:54.687Z,43.10
2022-09-11T13:05:00.891Z,46.00
2022-09-11T13:13:29.970Z,48.30
2022-09-11T13:21:41.983Z,50.40
2022-09-11T13:29:51.957Z,51.50
2022-09-11T13:38:03.505Z,53.40
2022-09-11T13:46:25.598Z,53.30
2022-09-11T13:54:41.422Z,54.60
2022-09-11T14:02:54.544Z,54.30
2022-09-11T14:11:07.114Z,55.30
2022-09-11T14:19:20.970Z,55.70
2022-09-11T14:27:43.161Z,56.40
2022-09-11T14:35:52.101Z,55.70
2022-09-11T14:43:59.217Z,56.30
2022-09-11T14:52:07.747Z,56.30
2022-09-11T15:00:16.764Z,57.40
2022-09-11T15:08:25.165Z,57.60
2022-09-11T15:16:30.536Z,58.10
2022-09-11T15:24:38.483Z,58.30
2022-09-11T15:32:44.984Z,59.40
2022-09-11T15:40:56.825Z,60.40
2022-09-11T15:49:02.513Z,60.90
2022-09-11T15:57:10.591Z,61.40
2022-09-11T16:05:15.911Z,62.00
2022-09-11T16:13:25.438Z,62.30
2022-09-11T16:21:31.408Z,63.00
2022-09-11T16:38:07.627Z,63.00
2022-09-11T16:46:17.468Z,62.90
2022-09-11T16:54:23.050Z,63.10
2022-09-11T17:02:30.986Z,63.30
2022-09-11T17:10:36.295Z,63.90
2022-09-11T17:18:44.798Z,64.30
2022-09-11T17:26:51.091Z,64.60
2022-09-11T17:34:59.163Z,64.80
2022-09-11T17:43:04.765Z,65.40
2022-09-11T17:51:15.734Z,66.20
2022-09-11T17:59:21.083Z,66.50
2022-09-11T18:07:28.999Z,67.10
2022-09-11T18:15:34.405Z,66.90
2022-09-11T18:23:44.674Z,66.70
2022-09-11T18:31:51.936Z,66.80
2022-09-11T18:40:01.086Z,66.80
2022-09-11T18:48:07.307Z,66.70
2022-09-11T18:56:15.337Z,67.10
2022-09-11T19:04:21.172Z,67.30
2022-09-11T19:12:29.293Z,67.40
2022-09-11T19:20:34.664Z,67.70
2022-09-11T19:28:44.669Z,68.00
2022-09-11T19:36:52.135Z,68.00
2022-09-11T19:45:00.405Z,67.50
2022-09-11T19:53:05.828Z,67.70
2022-09-11T20:01:16.164Z,67.30
2022-09-11T20:09:36.733Z,67.90
2022-09-11T20:17:44.970Z,68.30
2022-09-11T20:25:50.303Z,68.10
2022-09-11T20:34:00.417Z,68.90
2022-09-11T20:42:06.029Z,69.00
2022-09-11T20:50:14.651Z,69.40
2022-09-11T20:58:20.203Z,70.30
2022-09-11T21:06:32.935Z,70.80
2022-09-11T21:14:38.185Z,72.40
2022-09-11T21:22:46.011Z,76.70
2022-09-11T21:30:51.569Z,77.50
2022-09-11T21:38:59.899Z,78.90
2022-09-11T21:47:05.291Z,78.20
2022-09-11T21:55:14.225Z,78.80
2022-09-11T22:03:21.211Z,78.10
2022-09-11T22:11:29.708Z,82.10
2022-09-11T22:19:35.218Z,82.60
2022-09-11T22:27:43.130Z,82.90
2022-09-11T22:35:49.612Z,84.00
2022-09-11T22:43:57.638Z,83.70
2022-09-11T22:52:03.715Z,84.20
2022-09-11T23:00:14.802Z,83.50
2022-09-11T23:08:20.095Z,83.80
2022-09-11T23:16:30.924Z,83.30
2022-09-11T23:24:36.408Z,84.00
2022-09-11T23:32:44.317Z,84.40
2022-09-11T23:40:49.696Z,86.00
2022-09-11T23:48:57.880Z,87.70
2022-09-11T23:57:03.419Z,87.50
